Decoded Metar for URKA (ANAPA/VITIAZEVO in RUSSIA) (IATA:N/A) | Meteo·Mobile Aviation Weather
aviador You're here:

URKA Decoded Metar

ANAPA/VITIAZEVO in RUSSIA
Report Time2019-02-20 01:00:00
UTC Time2019-02-20 01:28:35
Flight Rules vfr VFR
Wind150° at 12 kt
W.Decomp.*RWY 22: 2.9 kt HW 11.6 kt LCW
W.Rank150° ranks 7
Current wind is above 150° avg. (8.0)
Visibility9999 m
Phenomena:N/A
Clouds:N/A
Expected CloudBase > 800 ft AGL from Temp-Dew spread
CeilingNone
Temp02°C (ISA -13)
Dew Point00°C (87% RH)
AAT-4.3°C
QNH1022 hPa
Density Alt-1,588 ft
Elevation174 ft
Report Wrong Elevation
Raw Report
METAR URKA 200100Z AUTO 15006MPS 9999 // NCD 02/00 Q1022 RMK QFE762/1017=

Extra information for URKA:More info

Metar Taf Metar & Taf Last 4 Metars F.Rules Stats Wind Profile Meteogram Temp Stats Airport Information Weather charts Add Link Nearby VenuesMetar ALERT Operation Metar Decoded Social comments